sensor_id;sensor_type;location;lat;lon;timestamp;P1;durP1;ratioP1;P2;durP2;ratioP2
10412;SDS011;5252;42.602;23.386;2022-07-29T00:01:30;9.10;;;8.30;;
10412;SDS011;5252;42.602;23.386;2022-07-29T00:03:57;9.05;;;8.35;;
10412;SDS011;5252;42.602;23.386;2022-07-29T00:06:24;9.63;;;8.63;;
10412;SDS011;5252;42.602;23.386;2022-07-29T00:08:52;9.45;;;8.65;;
10412;SDS011;5252;42.602;23.386;2022-07-29T00:11:18;10.13;;;9.20;;
10412;SDS011;5252;42.602;23.386;2022-07-29T00:13:45;10.57;;;9.57;;
10412;SDS011;5252;42.602;23.386;2022-07-29T00:16:11;10.52;;;9.73;;
10412;SDS011;5252;42.602;23.386;2022-07-29T00:18:38;10.77;;;9.93;;
10412;SDS011;5252;42.602;23.386;2022-07-29T00:21:04;10.88;;;9.98;;
10412;SDS011;5252;42.602;23.386;2022-07-29T00:23:31;11.20;;;9.85;;
10412;SDS011;5252;42.602;23.386;2022-07-29T00:25:59;11.73;;;10.63;;
10412;SDS011;5252;42.602;23.386;2022-07-29T00:28:26;10.70;;;9.82;;
10412;SDS011;5252;42.602;23.386;2022-07-29T00:30:52;11.60;;;10.50;;
10412;SDS011;5252;42.602;23.386;2022-07-29T00:33:19;11.63;;;10.48;;
10412;SDS011;5252;42.602;23.386;2022-07-29T00:35:45;11.98;;;10.88;;
10412;SDS011;5252;42.602;23.386;2022-07-29T00:38:11;12.25;;;11.18;;
10412;SDS011;5252;42.602;23.386;2022-07-29T00:40:38;12.40;;;11.13;;
10412;SDS011;5252;42.602;23.386;2022-07-29T00:43:07;12.13;;;11.23;;
10412;SDS011;5252;42.602;23.386;2022-07-29T00:45:35;12.48;;;11.35;;
10412;SDS011;5252;42.602;23.386;2022-07-29T00:48:01;12.13;;;11.20;;
10412;SDS011;5252;42.602;23.386;2022-07-29T00:50:30;12.63;;;11.50;;
10412;SDS011;5252;42.602;23.386;2022-07-29T00:52:57;11.40;;;10.40;;
10412;SDS011;5252;42.602;23.386;2022-07-29T00:55:23;11.75;;;10.75;;
10412;SDS011;5252;42.602;23.386;2022-07-29T00:57:50;10.95;;;10.05;;
10412;SDS011;5252;42.602;23.386;2022-07-29T01:00:19;11.07;;;10.00;;
10412;SDS011;5252;42.602;23.386;2022-07-29T01:02:46;10.60;;;9.60;;
10412;SDS011;5252;42.602;23.386;2022-07-29T01:05:13;12.63;;;10.30;;
10412;SDS011;5252;42.602;23.386;2022-07-29T01:07:40;15.90;;;10.40;;
10412;SDS011;5252;42.602;23.386;2022-07-29T01:10:09;11.40;;;9.98;;
10412;SDS011;5252;42.602;23.386;2022-07-29T01:12:36;12.23;;;11.05;;
10412;SDS011;5252;42.602;23.386;2022-07-29T01:15:04;12.52;;;11.40;;
10412;SDS011;5252;42.602;23.386;2022-07-29T01:17:33;11.57;;;10.57;;
10412;SDS011;5252;42.602;23.386;2022-07-29T01:20:03;12.48;;;11.38;;
10412;SDS011;5252;42.602;23.386;2022-07-29T01:22:35;12.98;;;11.73;;
10412;SDS011;5252;42.602;23.386;2022-07-29T01:25:17;12.90;;;11.63;;
10412;SDS011;5252;42.602;23.386;2022-07-29T01:27:51;12.25;;;11.10;;
10412;SDS011;5252;42.602;23.386;2022-07-29T01:30:26;11.73;;;10.63;;
10412;SDS011;5252;42.602;23.386;2022-07-29T01:32:54;11.88;;;10.88;;
10412;SDS011;5252;42.602;23.386;2022-07-29T01:35:23;12.43;;;11.32;;
10412;SDS011;5252;42.602;23.386;2022-07-29T01:37:52;12.02;;;10.93;;
10412;SDS011;5252;42.602;23.386;2022-07-29T01:40:22;12.80;;;11.10;;
10412;SDS011;5252;42.602;23.386;2022-07-29T01:42:51;12.02;;;11.02;;
10412;SDS011;5252;42.602;23.386;2022-07-29T01:45:19;12.23;;;11.02;;
10412;SDS011;5252;42.602;23.386;2022-07-29T01:47:50;12.68;;;11.40;;
10412;SDS011;5252;42.602;23.386;2022-07-29T01:50:20;12.20;;;11.00;;
10412;SDS011;5252;42.602;23.386;2022-07-29T01:52:52;12.57;;;11.27;;
10412;SDS011;5252;42.602;23.386;2022-07-29T01:55:20;11.65;;;10.65;;
10412;SDS011;5252;42.602;23.386;2022-07-29T01:57:49;12.95;;;11.52;;
10412;SDS011;5252;42.602;23.386;2022-07-29T02:00:16;13.27;;;11.98;;
10412;SDS011;5252;42.602;23.386;2022-07-29T02:02:43;13.52;;;12.27;;
10412;SDS011;5252;42.602;23.386;2022-07-29T02:05:12;13.55;;;11.98;;
10412;SDS011;5252;42.602;23.386;2022-07-29T02:07:40;13.45;;;12.05;;
10412;SDS011;5252;42.602;23.386;2022-07-29T02:10:08;14.25;;;13.02;;
10412;SDS011;5252;42.602;23.386;2022-07-29T02:12:35;13.73;;;12.43;;
10412;SDS011;5252;42.602;23.386;2022-07-29T02:15:03;12.10;;;11.10;;
10412;SDS011;5252;42.602;23.386;2022-07-29T02:17:33;11.43;;;10.50;;
10412;SDS011;5252;42.602;23.386;2022-07-29T02:20:02;10.20;;;9.30;;
10412;SDS011;5252;42.602;23.386;2022-07-29T02:22:31;10.35;;;9.30;;
10412;SDS011;5252;42.602;23.386;2022-07-29T02:25:00;9.57;;;8.68;;
10412;SDS011;5252;42.602;23.386;2022-07-29T02:27:27;9.38;;;8.52;;
10412;SDS011;5252;42.602;23.386;2022-07-29T02:29:54;9.27;;;8.45;;
10412;SDS011;5252;42.602;23.386;2022-07-29T02:32:23;9.05;;;8.35;;
10412;SDS011;5252;42.602;23.386;2022-07-29T02:34:50;9.18;;;8.38;;
10412;SDS011;5252;42.602;23.386;2022-07-29T02:37:17;8.80;;;8.00;;
10412;SDS011;5252;42.602;23.386;2022-07-29T02:39:46;8.95;;;8.13;;
10412;SDS011;5252;42.602;23.386;2022-07-29T02:42:15;9.13;;;8.32;;
10412;SDS011;5252;42.602;23.386;2022-07-29T02:44:42;9.20;;;8.38;;
10412;SDS011;5252;42.602;23.386;2022-07-29T02:47:10;8.88;;;8.07;;
10412;SDS011;5252;42.602;23.386;2022-07-29T02:49:41;9.77;;;8.77;;
10412;SDS011;5252;42.602;23.386;2022-07-29T02:52:10;10.15;;;8.32;;
10412;SDS011;5252;42.602;23.386;2022-07-29T02:54:39;9.52;;;8.63;;
10412;SDS011;5252;42.602;23.386;2022-07-29T02:57:11;8.60;;;7.80;;
10412;SDS011;5252;42.602;23.386;2022-07-29T02:59:40;9.43;;;8.63;;
10412;SDS011;5252;42.602;23.386;2022-07-29T03:02:08;9.52;;;8.45;;
10412;SDS011;5252;42.602;23.386;2022-07-29T03:04:36;9.55;;;8.68;;
10412;SDS011;5252;42.602;23.386;2022-07-29T03:07:03;9.18;;;8.32;;
10412;SDS011;5252;42.602;23.386;2022-07-29T03:09:31;10.13;;;9.23;;
10412;SDS011;5252;42.602;23.386;2022-07-29T03:11:57;8.98;;;8.35;;
10412;SDS011;5252;42.602;23.386;2022-07-29T03:14:25;9.15;;;8.32;;
10412;SDS011;5252;42.602;23.386;2022-07-29T03:16:52;9.60;;;8.65;;
10412;SDS011;5252;42.602;23.386;2022-07-29T03:19:19;9.05;;;8.32;;
10412;SDS011;5252;42.602;23.386;2022-07-29T03:21:46;9.85;;;8.82;;
10412;SDS011;5252;42.602;23.386;2022-07-29T03:24:24;10.43;;;9.43;;
10412;SDS011;5252;42.602;23.386;2022-07-29T03:26:50;11.05;;;10.15;;
10412;SDS011;5252;42.602;23.386;2022-07-29T03:29:17;11.40;;;10.40;;
10412;SDS011;5252;42.602;23.386;2022-07-29T03:31:45;12.02;;;11.02;;
10412;SDS011;5252;42.602;23.386;2022-07-29T03:34:11;11.57;;;10.48;;
10412;SDS011;5252;42.602;23.386;2022-07-29T03:36:38;10.90;;;9.95;;
10412;SDS011;5252;42.602;23.386;2022-07-29T03:39:04;10.20;;;9.20;;
10412;SDS011;5252;42.602;23.386;2022-07-29T03:41:31;12.75;;;10.70;;
10412;SDS011;5252;42.602;23.386;2022-07-29T03:43:58;10.25;;;9.32;;
10412;SDS011;5252;42.602;23.386;2022-07-29T03:46:26;10.70;;;9.68;;
10412;SDS011;5252;42.602;23.386;2022-07-29T03:48:55;11.00;;;10.00;;
10412;SDS011;5252;42.602;23.386;2022-07-29T03:51:22;11.95;;;10.13;;
10412;SDS011;5252;42.602;23.386;2022-07-29T03:53:49;10.43;;;9.63;;
10412;SDS011;5252;42.602;23.386;2022-07-29T03:56:15;12.48;;;10.52;;
10412;SDS011;5252;42.602;23.386;2022-07-29T03:58:43;10.25;;;9.45;;
10412;SDS011;5252;42.602;23.386;2022-07-29T04:01:10;10.98;;;10.00;;
10412;SDS011;5252;42.602;23.386;2022-07-29T04:03:37;10.57;;;9.57;;
10412;SDS011;5252;42.602;23.386;2022-07-29T04:06:06;10.73;;;9.68;;
10412;SDS011;5252;42.602;23.386;2022-07-29T04:08:33;10.50;;;9.43;;
10412;SDS011;5252;42.602;23.386;2022-07-29T04:11:00;9.80;;;9.00;;
10412;SDS011;5252;42.602;23.386;2022-07-29T04:13:26;10.52;;;9.02;;
10412;SDS011;5252;42.602;23.386;2022-07-29T04:15:53;10.70;;;9.70;;
10412;SDS011;5252;42.602;23.386;2022-07-29T04:18:20;10.80;;;9.55;;
10412;SDS011;5252;42.602;23.386;2022-07-29T04:20:46;10.68;;;9.77;;
10412;SDS011;5252;42.602;23.386;2022-07-29T04:23:14;11.15;;;10.00;;
10412;SDS011;5252;42.602;23.386;2022-07-29T04:25:41;10.73;;;9.80;;
10412;SDS011;5252;42.602;23.386;2022-07-29T04:28:08;10.35;;;9.45;;
10412;SDS011;5252;42.602;23.386;2022-07-29T04:30:35;11.15;;;9.95;;
10412;SDS011;5252;42.602;23.386;2022-07-29T04:33:02;9.82;;;9.02;;
10412;SDS011;5252;42.602;23.386;2022-07-29T04:35:29;10.00;;;8.98;;
10412;SDS011;5252;42.602;23.386;2022-07-29T04:37:56;9.18;;;8.30;;
10412;SDS011;5252;42.602;23.386;2022-07-29T04:40:24;8.25;;;7.55;;
10412;SDS011;5252;42.602;23.386;2022-07-29T04:42:51;7.57;;;6.97;;
10412;SDS011;5252;42.602;23.386;2022-07-29T04:45:17;7.35;;;6.68;;
10412;SDS011;5252;42.602;23.386;2022-07-29T04:47:44;7.20;;;6.50;;
10412;SDS011;5252;42.602;23.386;2022-07-29T04:50:11;6.88;;;6.07;;
10412;SDS011;5252;42.602;23.386;2022-07-29T04:52:38;6.65;;;6.03;;
10412;SDS011;5252;42.602;23.386;2022-07-29T04:55:05;6.85;;;6.15;;
10412;SDS011;5252;42.602;23.386;2022-07-29T04:57:33;6.68;;;5.95;;
10412;SDS011;5252;42.602;23.386;2022-07-29T05:00:00;7.07;;;6.47;;
10412;SDS011;5252;42.602;23.386;2022-07-29T05:02:26;7.00;;;6.40;;
10412;SDS011;5252;42.602;23.386;2022-07-29T05:04:54;7.07;;;6.47;;
10412;SDS011;5252;42.602;23.386;2022-07-29T05:07:21;7.78;;;7.10;;
10412;SDS011;5252;42.602;23.386;2022-07-29T05:09:47;6.95;;;6.38;;
10412;SDS011;5252;42.602;23.386;2022-07-29T05:12:14;7.05;;;6.35;;
10412;SDS011;5252;42.602;23.386;2022-07-29T05:14:42;7.03;;;6.32;;
10412;SDS011;5252;42.602;23.386;2022-07-29T05:17:08;7.40;;;6.60;;
10412;SDS011;5252;42.602;23.386;2022-07-29T05:19:35;7.22;;;5.82;;
10412;SDS011;5252;42.602;23.386;2022-07-29T05:22:03;7.53;;;6.70;;
10412;SDS011;5252;42.602;23.386;2022-07-29T05:24:30;6.80;;;6.20;;
10412;SDS011;5252;42.602;23.386;2022-07-29T05:26:57;6.30;;;5.75;;
10412;SDS011;5252;42.602;23.386;2022-07-29T05:29:23;6.80;;;6.10;;
10412;SDS011;5252;42.602;23.386;2022-07-29T05:31:51;6.45;;;5.85;;
10412;SDS011;5252;42.602;23.386;2022-07-29T05:34:18;6.88;;;6.28;;
10412;SDS011;5252;42.602;23.386;2022-07-29T05:36:44;6.90;;;6.20;;
10412;SDS011;5252;42.602;23.386;2022-07-29T05:39:11;7.32;;;6.57;;
10412;SDS011;5252;42.602;23.386;2022-07-29T05:41:38;7.88;;;7.07;;
10412;SDS011;5252;42.602;23.386;2022-07-29T05:44:05;7.68;;;7.07;;
10412;SDS011;5252;42.602;23.386;2022-07-29T05:46:31;7.78;;;7.00;;
10412;SDS011;5252;42.602;23.386;2022-07-29T05:49:00;7.55;;;6.90;;
10412;SDS011;5252;42.602;23.386;2022-07-29T05:51:27;7.82;;;7.13;;
10412;SDS011;5252;42.602;23.386;2022-07-29T05:53:54;8.05;;;7.25;;
10412;SDS011;5252;42.602;23.386;2022-07-29T05:56:23;7.82;;;7.22;;
10412;SDS011;5252;42.602;23.386;2022-07-29T05:58:50;8.15;;;6.88;;
10412;SDS011;5252;42.602;23.386;2022-07-29T06:01:16;8.20;;;7.50;;
10412;SDS011;5252;42.602;23.386;2022-07-29T06:03:43;7.80;;;7.10;;
10412;SDS011;5252;42.602;23.386;2022-07-29T06:06:13;8.32;;;7.63;;
10412;SDS011;5252;42.602;23.386;2022-07-29T06:08:40;7.63;;;6.90;;
10412;SDS011;5252;42.602;23.386;2022-07-29T06:11:06;8.20;;;7.43;;
10412;SDS011;5252;42.602;23.386;2022-07-29T06:13:33;8.52;;;7.82;;
10412;SDS011;5252;42.602;23.386;2022-07-29T06:16:00;8.20;;;7.40;;
10412;SDS011;5252;42.602;23.386;2022-07-29T06:18:27;7.97;;;7.18;;
10412;SDS011;5252;42.602;23.386;2022-07-29T06:20:54;10.70;;;7.80;;
10412;SDS011;5252;42.602;23.386;2022-07-29T06:23:22;8.15;;;7.45;;
10412;SDS011;5252;42.602;23.386;2022-07-29T06:25:48;8.63;;;7.78;;
10412;SDS011;5252;42.602;23.386;2022-07-29T06:28:15;8.25;;;7.40;;
10412;SDS011;5252;42.602;23.386;2022-07-29T06:30:42;7.90;;;6.97;;
10412;SDS011;5252;42.602;23.386;2022-07-29T06:33:08;7.25;;;6.65;;
10412;SDS011;5252;42.602;23.386;2022-07-29T06:35:35;7.70;;;6.97;;
10412;SDS011;5252;42.602;23.386;2022-07-29T06:38:02;8.00;;;6.53;;
10412;SDS011;5252;42.602;23.386;2022-07-29T06:40:30;7.00;;;6.30;;
10412;SDS011;5252;42.602;23.386;2022-07-29T06:43:14;8.73;;;6.63;;
10412;SDS011;5252;42.602;23.386;2022-07-29T06:45:41;7.20;;;6.50;;
10412;SDS011;5252;42.602;23.386;2022-07-29T06:48:08;7.03;;;6.43;;
10412;SDS011;5252;42.602;23.386;2022-07-29T06:50:34;7.35;;;6.70;;
10412;SDS011;5252;42.602;23.386;2022-07-29T06:53:01;7.65;;;6.10;;
10412;SDS011;5252;42.602;23.386;2022-07-29T06:55:28;6.95;;;6.18;;
10412;SDS011;5252;42.602;23.386;2022-07-29T06:57:56;8.43;;;6.43;;
10412;SDS011;5252;42.602;23.386;2022-07-29T07:00:22;7.85;;;6.22;;
10412;SDS011;5252;42.602;23.386;2022-07-29T07:02:49;6.60;;;6.00;;
10412;SDS011;5252;42.602;23.386;2022-07-29T07:05:15;6.97;;;6.35;;
10412;SDS011;5252;42.602;23.386;2022-07-29T07:07:42;6.22;;;5.63;;
10412;SDS011;5252;42.602;23.386;2022-07-29T07:10:08;6.35;;;5.32;;
10412;SDS011;5252;42.602;23.386;2022-07-29T07:12:35;7.50;;;5.88;;
10412;SDS011;5252;42.602;23.386;2022-07-29T07:15:03;7.05;;;4.80;;
10412;SDS011;5252;42.602;23.386;2022-07-29T07:17:30;4.60;;;4.20;;
10412;SDS011;5252;42.602;23.386;2022-07-29T07:19:57;4.30;;;3.90;;
10412;SDS011;5252;42.602;23.386;2022-07-29T07:22:24;4.45;;;3.80;;
10412;SDS011;5252;42.602;23.386;2022-07-29T07:24:50;4.20;;;3.80;;
10412;SDS011;5252;42.602;23.386;2022-07-29T07:27:17;4.00;;;3.33;;
10412;SDS011;5252;42.602;23.386;2022-07-29T07:29:43;3.95;;;3.55;;
10412;SDS011;5252;42.602;23.386;2022-07-29T07:32:11;3.70;;;3.40;;
10412;SDS011;5252;42.602;23.386;2022-07-29T07:34:41;3.40;;;3.10;;
10412;SDS011;5252;42.602;23.386;2022-07-29T07:37:07;5.60;;;3.10;;
10412;SDS011;5252;42.602;23.386;2022-07-29T07:39:34;4.20;;;3.20;;
10412;SDS011;5252;42.602;23.386;2022-07-29T07:42:01;3.22;;;2.90;;
10412;SDS011;5252;42.602;23.386;2022-07-29T07:44:27;2.95;;;2.60;;
10412;SDS011;5252;42.602;23.386;2022-07-29T07:46:54;3.38;;;3.00;;
10412;SDS011;5252;42.602;23.386;2022-07-29T07:49:22;3.38;;;3.08;;
10412;SDS011;5252;42.602;23.386;2022-07-29T07:51:48;3.38;;;3.08;;
10412;SDS011;5252;42.602;23.386;2022-07-29T07:54:15;3.38;;;3.08;;
10412;SDS011;5252;42.602;23.386;2022-07-29T07:56:41;3.80;;;3.50;;
10412;SDS011;5252;42.602;23.386;2022-07-29T07:59:08;3.50;;;3.20;;
10412;SDS011;5252;42.602;23.386;2022-07-29T08:01:35;5.13;;;3.55;;
10412;SDS011;5252;42.602;23.386;2022-07-29T08:04:01;3.58;;;3.28;;
10412;SDS011;5252;42.602;23.386;2022-07-29T08:06:31;5.13;;;3.70;;
10412;SDS011;5252;42.602;23.386;2022-07-29T08:08:59;5.40;;;3.30;;
10412;SDS011;5252;42.602;23.386;2022-07-29T08:11:27;3.60;;;3.30;;
10412;SDS011;5252;42.602;23.386;2022-07-29T08:13:53;3.95;;;3.47;;
10412;SDS011;5252;42.602;23.386;2022-07-29T08:16:20;4.32;;;3.92;;
10412;SDS011;5252;42.602;23.386;2022-07-29T08:18:46;3.90;;;3.50;;
10412;SDS011;5252;42.602;23.386;2022-07-29T08:21:13;4.20;;;3.50;;
10412;SDS011;5252;42.602;23.386;2022-07-29T08:23:42;5.13;;;3.42;;
10412;SDS011;5252;42.602;23.386;2022-07-29T08:26:15;5.25;;;3.67;;
10412;SDS011;5252;42.602;23.386;2022-07-29T08:28:43;4.20;;;3.47;;
10412;SDS011;5252;42.602;23.386;2022-07-29T08:31:11;3.33;;;3.03;;
10412;SDS011;5252;42.602;23.386;2022-07-29T08:33:38;3.70;;;3.38;;
10412;SDS011;5252;42.602;23.386;2022-07-29T08:36:04;5.05;;;3.50;;
10412;SDS011;5252;42.602;23.386;2022-07-29T08:38:31;4.53;;;3.10;;
10412;SDS011;5252;42.602;23.386;2022-07-29T08:40:59;3.95;;;3.55;;
10412;SDS011;5252;42.602;23.386;2022-07-29T08:43:26;4.07;;;3.55;;
10412;SDS011;5252;42.602;23.386;2022-07-29T08:45:53;4.65;;;3.65;;
10412;SDS011;5252;42.602;23.386;2022-07-29T08:48:22;4.95;;;3.78;;
10412;SDS011;5252;42.602;23.386;2022-07-29T08:50:49;4.15;;;3.40;;
10412;SDS011;5252;42.602;23.386;2022-07-29T08:53:17;4.22;;;3.72;;
10412;SDS011;5252;42.602;23.386;2022-07-29T08:55:44;5.13;;;3.60;;
10412;SDS011;5252;42.602;23.386;2022-07-29T08:58:13;4.07;;;3.70;;
10412;SDS011;5252;42.602;23.386;2022-07-29T09:00:41;3.65;;;3.35;;
10412;SDS011;5252;42.602;23.386;2022-07-29T09:03:08;4.00;;;3.38;;
10412;SDS011;5252;42.602;23.386;2022-07-29T09:05:35;5.55;;;3.90;;
10412;SDS011;5252;42.602;23.386;2022-07-29T09:08:02;4.13;;;3.72;;
10412;SDS011;5252;42.602;23.386;2022-07-29T09:10:29;4.80;;;3.70;;
10412;SDS011;5252;42.602;23.386;2022-07-29T09:12:56;4.72;;;3.60;;
10412;SDS011;5252;42.602;23.386;2022-07-29T09:15:24;4.95;;;3.75;;
10412;SDS011;5252;42.602;23.386;2022-07-29T09:17:51;4.05;;;3.65;;
10412;SDS011;5252;42.602;23.386;2022-07-29T09:20:17;4.03;;;3.55;;
10412;SDS011;5252;42.602;23.386;2022-07-29T09:22:44;4.70;;;3.75;;
10412;SDS011;5252;42.602;23.386;2022-07-29T09:25:14;4.38;;;3.92;;
10412;SDS011;5252;42.602;23.386;2022-07-29T09:27:41;4.72;;;3.58;;
10412;SDS011;5252;42.602;23.386;2022-07-29T09:30:08;4.85;;;4.00;;
10412;SDS011;5252;42.602;23.386;2022-07-29T09:35:19;4.28;;;3.88;;
10412;SDS011;5252;42.602;23.386;2022-07-29T09:37:46;3.92;;;3.63;;
10412;SDS011;5252;42.602;23.386;2022-07-29T09:40:14;4.00;;;3.60;;
10412;SDS011;5252;42.602;23.386;2022-07-29T09:42:41;4.10;;;3.60;;
10412;SDS011;5252;42.602;23.386;2022-07-29T09:45:08;4.13;;;3.72;;
10412;SDS011;5252;42.602;23.386;2022-07-29T09:47:41;4.18;;;3.78;;
10412;SDS011;5252;42.602;23.386;2022-07-29T09:50:10;4.60;;;4.00;;
10412;SDS011;5252;42.602;23.386;2022-07-29T09:52:45;3.85;;;3.55;;
10412;SDS011;5252;42.602;23.386;2022-07-29T09:55:12;3.83;;;3.47;;
10412;SDS011;5252;42.602;23.386;2022-07-29T09:57:39;5.13;;;4.00;;
10412;SDS011;5252;42.602;23.386;2022-07-29T10:00:06;4.07;;;3.67;;
10412;SDS011;5252;42.602;23.386;2022-07-29T10:02:34;4.13;;;3.78;;
10412;SDS011;5252;42.602;23.386;2022-07-29T10:05:02;4.00;;;3.70;;
10412;SDS011;5252;42.602;23.386;2022-07-29T10:07:42;3.97;;;3.42;;
10412;SDS011;5252;42.602;23.386;2022-07-29T10:10:17;3.70;;;3.40;;
10412;SDS011;5252;42.602;23.386;2022-07-29T10:12:51;4.35;;;3.30;;
10412;SDS011;5252;42.602;23.386;2022-07-29T10:15:18;3.75;;;3.45;;
10412;SDS011;5252;42.602;23.386;2022-07-29T10:17:45;3.80;;;3.40;;
10412;SDS011;5252;42.602;23.386;2022-07-29T10:20:13;3.80;;;3.50;;
10412;SDS011;5252;42.602;23.386;2022-07-29T10:22:40;3.70;;;3.40;;
10412;SDS011;5252;42.602;23.386;2022-07-29T10:25:07;4.25;;;3.50;;
10412;SDS011;5252;42.602;23.386;2022-07-29T10:27:35;3.60;;;3.30;;
10412;SDS011;5252;42.602;23.386;2022-07-29T10:30:03;4.35;;;2.95;;
10412;SDS011;5252;42.602;23.386;2022-07-29T10:32:35;4.82;;;3.13;;
10412;SDS011;5252;42.602;23.386;2022-07-29T10:35:21;3.72;;;3.42;;
10412;SDS011;5252;42.602;23.386;2022-07-29T10:38:00;4.72;;;3.15;;
10412;SDS011;5252;42.602;23.386;2022-07-29T10:40:32;4.97;;;3.28;;
10412;SDS011;5252;42.602;23.386;2022-07-29T10:43:24;3.60;;;3.30;;
10412;SDS011;5252;42.602;23.386;2022-07-29T10:45:54;3.75;;;3.30;;
10412;SDS011;5252;42.602;23.386;2022-07-29T10:48:21;4.93;;;3.33;;
10412;SDS011;5252;42.602;23.386;2022-07-29T10:50:52;3.75;;;3.45;;
10412;SDS011;5252;42.602;23.386;2022-07-29T10:53:19;4.03;;;3.67;;
10412;SDS011;5252;42.602;23.386;2022-07-29T10:55:46;4.50;;;3.53;;
10412;SDS011;5252;42.602;23.386;2022-07-29T10:58:15;3.58;;;3.28;;
10412;SDS011;5252;42.602;23.386;2022-07-29T11:00:43;4.53;;;3.67;;
10412;SDS011;5252;42.602;23.386;2022-07-29T11:03:15;3.72;;;3.42;;
10412;SDS011;5252;42.602;23.386;2022-07-29T11:06:02;5.38;;;3.38;;
10412;SDS011;5252;42.602;23.386;2022-07-29T11:08:28;4.03;;;3.72;;
10412;SDS011;5252;42.602;23.386;2022-07-29T11:13:47;3.90;;;3.60;;
10412;SDS011;5252;42.602;23.386;2022-07-29T11:16:17;7.20;;;3.53;;
10412;SDS011;5252;42.602;23.386;2022-07-29T11:21:34;3.70;;;3.40;;
10412;SDS011;5252;42.602;23.386;2022-07-29T11:24:11;4.80;;;3.08;;
10412;SDS011;5252;42.602;23.386;2022-07-29T11:26:38;3.78;;;3.47;;
10412;SDS011;5252;42.602;23.386;2022-07-29T11:29:05;3.70;;;3.15;;
10412;SDS011;5252;42.602;23.386;2022-07-29T11:31:38;3.20;;;2.90;;
10412;SDS011;5252;42.602;23.386;2022-07-29T11:34:20;3.40;;;2.92;;
10412;SDS011;5252;42.602;23.386;2022-07-29T11:39:32;3.28;;;2.97;;
10412;SDS011;5252;42.602;23.386;2022-07-29T11:44:53;3.67;;;3.08;;
10412;SDS011;5252;42.602;23.386;2022-07-29T11:47:21;3.38;;;3.08;;
10412;SDS011;5252;42.602;23.386;2022-07-29T11:49:48;3.28;;;2.97;;
10412;SDS011;5252;42.602;23.386;2022-07-29T11:52:15;3.45;;;3.15;;
10412;SDS011;5252;42.602;23.386;2022-07-29T11:54:42;3.58;;;3.28;;
10412;SDS011;5252;42.602;23.386;2022-07-29T11:57:09;3.65;;;3.33;;
10412;SDS011;5252;42.602;23.386;2022-07-29T11:59:38;3.60;;;3.30;;
10412;SDS011;5252;42.602;23.386;2022-07-29T12:02:06;4.35;;;3.65;;
10412;SDS011;5252;42.602;23.386;2022-07-29T12:04:34;4.82;;;3.20;;
10412;SDS011;5252;42.602;23.386;2022-07-29T12:07:14;4.28;;;3.70;;
10412;SDS011;5252;42.602;23.386;2022-07-29T12:09:41;4.03;;;3.60;;
10412;SDS011;5252;42.602;23.386;2022-07-29T12:12:15;4.22;;;3.80;;
10412;SDS011;5252;42.602;23.386;2022-07-29T12:14:42;5.00;;;3.70;;
10412;SDS011;5252;42.602;23.386;2022-07-29T12:17:24;3.85;;;3.50;;
10412;SDS011;5252;42.602;23.386;2022-07-29T12:19:52;4.72;;;3.75;;
10412;SDS011;5252;42.602;23.386;2022-07-29T12:22:24;4.22;;;3.83;;
10412;SDS011;5252;42.602;23.386;2022-07-29T12:24:51;4.38;;;3.92;;
10412;SDS011;5252;42.602;23.386;2022-07-29T12:27:17;4.38;;;3.97;;
10412;SDS011;5252;42.602;23.386;2022-07-29T12:29:44;4.53;;;4.13;;
10412;SDS011;5252;42.602;23.386;2022-07-29T12:32:11;4.30;;;3.83;;
10412;SDS011;5252;42.602;23.386;2022-07-29T12:34:38;4.25;;;3.95;;
10412;SDS011;5252;42.602;23.386;2022-07-29T12:37:06;4.75;;;4.30;;
10412;SDS011;5252;42.602;23.386;2022-07-29T12:39:35;5.22;;;4.32;;
10412;SDS011;5252;42.602;23.386;2022-07-29T12:42:10;4.32;;;3.92;;
10412;SDS011;5252;42.602;23.386;2022-07-29T12:44:46;4.30;;;3.88;;
10412;SDS011;5252;42.602;23.386;2022-07-29T12:47:13;4.47;;;4.15;;
10412;SDS011;5252;42.602;23.386;2022-07-29T12:49:40;4.15;;;3.78;;
10412;SDS011;5252;42.602;23.386;2022-07-29T12:55:02;4.32;;;3.95;;
10412;SDS011;5252;42.602;23.386;2022-07-29T12:57:29;6.53;;;4.15;;
10412;SDS011;5252;42.602;23.386;2022-07-29T13:00:01;5.05;;;4.15;;
10412;SDS011;5252;42.602;23.386;2022-07-29T13:02:28;5.00;;;4.50;;
10412;SDS011;5252;42.602;23.386;2022-07-29T13:04:55;4.50;;;4.10;;
10412;SDS011;5252;42.602;23.386;2022-07-29T13:07:23;4.82;;;4.07;;
10412;SDS011;5252;42.602;23.386;2022-07-29T13:09:50;4.85;;;4.45;;
10412;SDS011;5252;42.602;23.386;2022-07-29T13:12:18;4.65;;;4.20;;
10412;SDS011;5252;42.602;23.386;2022-07-29T13:14:46;3.80;;;3.50;;
10412;SDS011;5252;42.602;23.386;2022-07-29T13:17:13;4.20;;;3.70;;
10412;SDS011;5252;42.602;23.386;2022-07-29T13:19:41;4.70;;;4.30;;
10412;SDS011;5252;42.602;23.386;2022-07-29T13:22:09;4.20;;;3.80;;
10412;SDS011;5252;42.602;23.386;2022-07-29T13:24:44;4.47;;;4.07;;
10412;SDS011;5252;42.602;23.386;2022-07-29T13:27:11;6.25;;;3.67;;
10412;SDS011;5252;42.602;23.386;2022-07-29T13:29:39;3.80;;;3.50;;
10412;SDS011;5252;42.602;23.386;2022-07-29T13:32:06;3.95;;;3.65;;
10412;SDS011;5252;42.602;23.386;2022-07-29T13:34:32;4.57;;;4.07;;
10412;SDS011;5252;42.602;23.386;2022-07-29T13:36:59;3.80;;;3.50;;
10412;SDS011;5252;42.602;23.386;2022-07-29T13:39:25;4.00;;;3.70;;
10412;SDS011;5252;42.602;23.386;2022-07-29T13:41:52;3.80;;;3.50;;
10412;SDS011;5252;42.602;23.386;2022-07-29T13:44:18;4.10;;;3.70;;
10412;SDS011;5252;42.602;23.386;2022-07-29T13:46:46;6.22;;;3.75;;
10412;SDS011;5252;42.602;23.386;2022-07-29T13:49:13;4.45;;;3.75;;
10412;SDS011;5252;42.602;23.386;2022-07-29T13:51:40;4.03;;;3.72;;
10412;SDS011;5252;42.602;23.386;2022-07-29T13:54:06;4.93;;;3.80;;
10412;SDS011;5252;42.602;23.386;2022-07-29T13:56:33;3.75;;;3.45;;
10412;SDS011;5252;42.602;23.386;2022-07-29T13:59:00;3.80;;;3.50;;
10412;SDS011;5252;42.602;23.386;2022-07-29T14:01:26;4.10;;;3.67;;
10412;SDS011;5252;42.602;23.386;2022-07-29T14:03:56;4.05;;;3.63;;
10412;SDS011;5252;42.602;23.386;2022-07-29T14:06:23;3.92;;;3.63;;
10412;SDS011;5252;42.602;23.386;2022-07-29T14:08:49;3.88;;;3.58;;
10412;SDS011;5252;42.602;23.386;2022-07-29T14:11:16;3.60;;;3.30;;
10412;SDS011;5252;42.602;23.386;2022-07-29T14:13:42;3.78;;;3.47;;
10412;SDS011;5252;42.602;23.386;2022-07-29T14:16:09;3.75;;;3.40;;
10412;SDS011;5252;42.602;23.386;2022-07-29T14:18:36;3.92;;;3.63;;
10412;SDS011;5252;42.602;23.386;2022-07-29T14:21:04;3.88;;;3.53;;
10412;SDS011;5252;42.602;23.386;2022-07-29T14:23:30;4.53;;;3.47;;
10412;SDS011;5252;42.602;23.386;2022-07-29T14:25:57;4.45;;;3.70;;
10412;SDS011;5252;42.602;23.386;2022-07-29T14:28:23;4.00;;;3.60;;
10412;SDS011;5252;42.602;23.386;2022-07-29T14:30:50;3.85;;;3.55;;
10412;SDS011;5252;42.602;23.386;2022-07-29T14:33:16;4.80;;;3.60;;
10412;SDS011;5252;42.602;23.386;2022-07-29T14:35:44;5.35;;;3.92;;
10412;SDS011;5252;42.602;23.386;2022-07-29T14:38:12;3.75;;;3.35;;
10412;SDS011;5252;42.602;23.386;2022-07-29T14:40:38;3.92;;;3.58;;
10412;SDS011;5252;42.602;23.386;2022-07-29T14:43:05;3.83;;;3.53;;
10412;SDS011;5252;42.602;23.386;2022-07-29T14:45:31;3.50;;;3.20;;
10412;SDS011;5252;42.602;23.386;2022-07-29T14:47:58;3.40;;;3.17;;
10412;SDS011;5252;42.602;23.386;2022-07-29T14:50:25;3.80;;;3.50;;
10412;SDS011;5252;42.602;23.386;2022-07-29T14:52:52;3.80;;;3.50;;
10412;SDS011;5252;42.602;23.386;2022-07-29T14:55:20;3.97;;;3.53;;
10412;SDS011;5252;42.602;23.386;2022-07-29T14:57:47;4.43;;;3.30;;
10412;SDS011;5252;42.602;23.386;2022-07-29T15:00:15;4.13;;;3.72;;
10412;SDS011;5252;42.602;23.386;2022-07-29T15:02:41;4.22;;;3.90;;
10412;SDS011;5252;42.602;23.386;2022-07-29T15:05:08;3.55;;;3.28;;